This is the latest recevied weather packets stored in our database for station/object WC4PEM-10. If no packets are shown the sender has not sent any weather packets the latest 10 day(s).
| Time | Temp. | Humidity | Pressure | Rain* | Wind** | Luminosity | Snow |
|---|---|---|---|---|---|---|---|
| 1777494406 | 31.11° C | 49% | 1012.1 hPa | 0 mm | - | - | - |
| 1777494105 | 31.11° C | 49% | 1012.3 hPa | 0 mm | - | - | - |
| 1777493806 | 31.11° C | 49% | 1012.4 hPa | 0 mm | - | - | - |
| 1777493709 | 31.11° C | 50% | 1012.5 hPa | 0 mm | - | - | - |
| 1777493505 | 31.11° C | 50% | 1012.5 hPa | 0 mm | - | - | - |
| 1777493379 | 33.33° C | 46% | 1013 hPa | 0 mm | - | - | - |
| 1777493251 | 31.11° C | 49% | 1012.6 hPa | 0 mm | - | - | - |
| 1777493205 | 31.11° C | 49% | 1012.6 hPa | 0 mm | - | - | - |
| 1777492905 | 31.11° C | 49% | 1012.9 hPa | 0 mm | - | - | - |
| 1777492691 | 31.67° C | 47% | 1012.8 hPa | 0 mm | - | - | - |
| 1777492606 | 31.67° C | 47% | 1012.8 hPa | 0 mm | - | - | - |
| 1777492387 | 32.22° C | 47% | 1012.8 hPa | 0 mm | - | - | - |
| 1777492305 | 32.22° C | 47% | 1012.8 hPa | 0 mm | - | - | - |
| 1777492085 | 32.78° C | 47% | 1012.9 hPa | 0 mm | - | - | - |
| 1777492006 | 32.78° C | 47% | 1012.9 hPa | 0 mm | - | - | - |
| 1777491706 | 33.33° C | 46% | 1013 hPa | 0 mm | - | - | - |
| 1777491554 | 32.78° C | 45% | 1013.3 hPa | 0 mm | - | - | - |
| 1777491493 | 33.33° C | 45% | 1013.2 hPa | 0 mm | - | - | - |
| 1777491406 | 33.33° C | 45% | 1013.2 hPa | 0 mm | - | - | - |
| 1777491177 | 32.78° C | 45% | 1013.3 hPa | 0 mm | - | - | - |
| 1777491106 | 32.78° C | 45% | 1013.3 hPa | 0 mm | - | - | - |
| 1777490907 | 32.78° C | 46% | 1013.5 hPa | 0 mm | - | - | - |
| 1777490806 | 32.78° C | 46% | 1013.5 hPa | 0 mm | - | - | - |
| 1777490607 | 32.22° C | 46% | 1013.6 hPa | 0 mm | - | - | - |
| 1777490506 | 32.22° C | 46% | 1013.6 hPa | 0 mm | - | - | - |
* Rain latest hour (hover to see other rain measurements)
** Current wind speed in m/s (hover to see current wind gust speed)